Tamworth, New South Wales

10:33 PM AEDT on February 06, 2016 (GMT +1100)
South Tamworth | | Change Station
CLOSE
Current Station
Personal Weather Station
Location: Tamworth, NEW SOUTH WALES
Elevation: 1322 ft
Nearby Weather Stations

Elev 1322 ft 31.11 °S, 150.90 °E | Updated 3 minutes ago

Clear
Clear
70.4 °F
Feels Like 76 °F
N
4.0
Wind Variable Wind from SE
Gusts 12.0 mph

Today
High -- | Low -- °F
--% Chance of Precip.
Yesterday
High -- | Low -- °F
Precip. -- in
Pressure 30.01 in
Visibility 6.2 miles
Clouds
Heat Index 76 °F
Dew Point 56 °F
Humidity 61%
Rainfall 0.00 in
Snow Depth Not available.
6:27 AM 7:53 PM
Waning Crescent, 6% visible
METAR YSTW 061100Z AUTO 13014KT 9999 // NCD 21/12 Q1016
Pressure 30.01 in
Visibility 6.2 miles
Clouds
Heat Index 76 °F
Dew Point 56 °F
Humidity 61%
Rainfall 0.00 in
Snow Depth Not available.
6:27 AM 7:53 PM
Waning Crescent, 6% visible
METAR YSTW 061100Z AUTO 13014KT 9999 // NCD 21/12 Q1016

10-Day Weather Forecast

No radar image for this location.
×

Almanac

Astronomy

Feb. 06, 2016 Rise Set
Actual Time
Civil Twilight
Nautical Twilight
Astronomical Twilight
Moon
Length of Visible Light
Length of Day
Tomorrow will be .
, % of the Moon is Illuminated

Today's Extremes

Country Highs Country Lows

Community

WunderPhotos

Upload Photos

1,890,933 photos uploaded!

WunderBlog® & News

Nearby

Air Quality

  Air Quality AQ Index Pollutant
Not available.

Snow Depth

Station Depth Elevation

Earthquake Activity

City Distance Mag. Time & Date
Minimum magnitude displayed is 2.5.

Coastal Water Temperatures

Place Temperature

Stations

Nearby Weather Stations

Station Location Temp. Windchill Dew Point Humidity Wind Precip. Elev Updated Type